Terminal Aerodrome Forecast
Issued by NWS

Home | Current Version | Previous Version | Text Only | Print | Product List | Glossary On
Versions: 1 2 3 4 5 6 7 8 9 10 11 12 13 14 15 16 17
000
FTAK31 PAJN 180541 RRA
TAFAPG
TAF
PAPG 180541Z 1806/1906 VRB02KT P6SM -SHRA SCT015 OVC025
     FM180800 VRB02KT P6SM VCSH BKN015 OVC025
     FM181500 VRB02KT P6SM BKN025 OVC035
      TEMPO 1815/1819 5SM -SHSN BKN015
     FM182100 VRB04KT P6SM SCT025 OVC035
      AMD LTD TO CLD VIS AND WIND 1806/1815=

USA.gov is the U.S. government's official web portal to all federal, state and local government web resources and services.